Time;durP1;ratioP1;P1;durP2;ratioP2;P2;SDS_P1;SDS_P2;PMS_P1;PMS_P2;Temp;Humidity;BMP_temperature;BMP_pressure;BME280_temperature;BME280_humidity;BME280_pressure;Samples;Min_cycle;Max_cycle;Signal;HPM_P1;HPM_P2
2023/01/03 00:01:32;;;;;;;6.97;1.70;;;;;;;;;;6237009;22;20397;-76
2023/01/03 00:04:03;;;;;;;4.43;1.33;;;;;;;;;;6238275;23;20768;-76
2023/01/03 00:06:36;;;;;;;4.73;1.37;;;;;;;;;;6237847;23;20370;-76
2023/01/03 00:09:08;;;;;;;6.07;1.57;;;;;;;;;;6238317;23;20597;-76
2023/01/03 00:14:29;;;;;;;6.10;1.50;;;;;;;;;;6240163;23;20421;-76
2023/01/03 00:16:58;;;;;;;9.20;2.00;;;;;;;;;;6234853;23;20753;-76
2023/01/03 00:19:30;;;;;;;7.57;2.37;;;;;;;;;;6237794;22;20402;-76
2023/01/03 00:21:58;;;;;;;6.90;1.57;;;;;;;;;;6240410;22;20402;-74
2023/01/03 00:24:31;;;;;;;7.53;1.80;;;;;;;;;;6236689;23;20374;-76
2023/01/03 00:27:01;;;;;;;6.27;1.53;;;;;;;;;;6239883;22;20389;-76
2023/01/03 00:29:34;;;;;;;5.73;1.40;;;;;;;;;;6239321;22;20370;-76
2023/01/03 00:32:08;;;;;;;8.10;2.47;;;;;;;;;;6235786;23;20370;-76
2023/01/03 00:34:41;;;;;;;4.47;1.43;;;;;;;;;;6237441;23;20852;-76
2023/01/03 00:37:09;;;;;;;9.27;1.90;;;;;;;;;;6239537;23;20841;-76
2023/01/03 00:39:42;;;;;;;4.70;1.30;;;;;;;;;;6238979;22;20414;-76
2023/01/03 00:42:10;;;;;;;3.00;1.40;;;;;;;;;;6239136;22;21180;-76
2023/01/03 00:44:45;;;;;;;8.43;2.33;;;;;;;;;;6237034;22;20366;-76
2023/01/03 00:47:13;;;;;;;4.40;1.73;;;;;;;;;;6237794;22;20376;-76
2023/01/03 00:49:43;;;;;;;6.57;1.50;;;;;;;;;;6237481;22;20448;-75
2023/01/03 00:52:16;;;;;;;4.43;1.83;;;;;;;;;;6240239;22;20393;-76
2023/01/03 00:54:49;;;;;;;4.80;1.93;;;;;;;;;;6240513;22;20449;-75
2023/01/03 00:57:23;;;;;;;3.67;1.67;;;;;;;;;;6241519;22;20393;-76
2023/01/03 00:59:53;;;;;;;5.53;1.70;;;;;;;;;;6238892;22;20736;-76
2023/01/03 01:02:24;;;;;;;4.00;1.60;;;;;;;;;;6239370;23;20410;-76
2023/01/03 01:04:57;;;;;;;5.10;1.80;;;;;;;;;;6240272;22;20358;-76
2023/01/03 01:07:27;;;;;;;5.77;1.70;;;;;;;;;;6241370;22;20355;-76
2023/01/03 01:10:01;;;;;;;5.67;1.60;;;;;;;;;;6239606;22;20876;-76
2023/01/03 01:12:34;;;;;;;5.50;2.23;;;;;;;;;;6240762;22;20476;-76
2023/01/03 01:15:02;;;;;;;5.10;1.80;;;;;;;;;;6238429;23;20386;-76
2023/01/03 01:17:41;;;;;;;6.87;1.83;;;;;;;;;;6240626;22;20374;-76
2023/01/03 01:20:07;;;;;;;4.43;1.70;;;;;;;;;;6236244;22;20393;-76
2023/01/03 01:22:43;;;;;;;5.30;1.53;;;;;;;;;;6234772;23;20786;-76
2023/01/03 01:25:17;;;;;;;5.70;1.53;;;;;;;;;;6237181;23;20150;-76
2023/01/03 01:27:53;;;;;;;7.40;1.83;;;;;;;;;;6234858;23;20461;-76
2023/01/03 01:30:24;;;;;;;7.47;1.23;;;;;;;;;;6236866;22;20456;-76
2023/01/03 01:33:02;;;;;;;;;;;;;;;;;;;;;
2023/01/03 01:35:30;;;;;;;7.10;1.50;;;;;;;;;;6235116;23;20352;-75
2023/01/03 01:38:01;;;;;;;4.43;1.47;;;;;;;;;;6237925;22;20833;-76
2023/01/03 01:40:32;;;;;;;6.00;1.67;;;;;;;;;;6237413;22;20391;-75
2023/01/03 01:45:58;;;;;;;4.53;1.57;;;;;;;;;;6239362;23;20910;-77
2023/01/03 01:48:29;;;;;;;4.20;1.37;;;;;;;;;;6239716;22;20430;-75
2023/01/03 01:50:59;;;;;;;6.13;1.30;;;;;;;;;;6235090;22;20891;-76
2023/01/03 01:53:33;;;;;;;6.70;2.00;;;;;;;;;;6236487;23;20424;-75
2023/01/03 01:56:27;;;;;;;9.30;1.63;;;;;;;;;;6241195;22;20346;-76
2023/01/03 01:58:58;;;;;;;7.00;1.40;;;;;;;;;;6263724;22;20374;-76
2023/01/03 02:01:28;;;;;;;4.30;1.27;;;;;;;;;;6237741;22;20394;-75
2023/01/03 02:04:03;;;;;;;5.77;1.60;;;;;;;;;;6238155;23;20806;-75
2023/01/03 02:06:39;;;;;;;3.20;1.00;;;;;;;;;;6238338;23;20366;-76
2023/01/03 02:09:12;;;;;;;6.30;1.27;;;;;;;;;;6240131;22;20349;-76
2023/01/03 02:13:04;;;;;;;7.27;1.60;;;;;;;;;;6237719;23;20366;-76
2023/01/03 02:14:55;;;;;;;4.33;1.10;;;;;;;;;;6239760;23;20378;-76
2023/01/03 02:17:39;;;;;;;6.17;1.37;;;;;;;;;;6240427;22;20396;-75
2023/01/03 02:20:22;;;;;;;4.53;1.20;;;;;;;;;;6240788;22;20377;-75
2023/01/03 02:23:06;;;;;;;2.47;0.97;;;;;;;;;;6239283;23;20409;-75
2023/01/03 02:25:46;;;;;;;7.47;1.43;;;;;;;;;;6237990;23;20516;-75
2023/01/03 02:28:35;;;;;;;4.30;1.00;;;;;;;;;;6238201;23;20381;-75
2023/01/03 02:31:29;;;;;;;9.53;1.00;;;;;;;;;;6234931;22;20924;-75
2023/01/03 02:34:13;;;;;;;3.63;1.07;;;;;;;;;;6261978;22;20366;-75
2023/01/03 02:37:07;;;;;;;4.30;1.10;;;;;;;;;;6239528;22;20357;-76
2023/01/03 02:39:54;;;;;;;4.43;1.03;;;;;;;;;;6217963;22;20476;-76
2023/01/03 02:45:24;;;;;;;3.10;0.87;;;;;;;;;;6240803;23;20373;-76
2023/01/03 02:48:12;;;;;;;3.17;0.90;;;;;;;;;;6237959;23;20869;-76
2023/01/03 02:50:48;;;;;;;5.53;1.20;;;;;;;;;;6263223;22;21027;-76
2023/01/03 02:53:25;;;;;;;6.73;1.90;;;;;;;;;;6236707;23;20366;-76
2023/01/03 02:56:08;;;;;;;7.40;0.90;;;;;;;;;;6238856;22;20355;-76
2023/01/03 02:58:43;;;;;;;7.33;1.27;;;;;;;;;;6239310;22;20360;-76
2023/01/03 03:01:14;;;;;;;2.40;1.23;;;;;;;;;;6239384;22;21171;-76
2023/01/03 03:03:48;;;;;;;9.07;1.43;;;;;;;;;;6238159;23;20955;-76
2023/01/03 03:06:15;;;;;;;6.20;1.30;;;;;;;;;;6240261;22;20400;-76
2023/01/03 03:08:49;;;;;;;2.57;1.40;;;;;;;;;;6237233;23;20737;-75
2023/01/03 03:14:17;;;;;;;4.23;1.73;;;;;;;;;;6237800;23;20420;-76
2023/01/03 03:16:50;;;;;;;6.30;1.40;;;;;;;;;;6238628;23;20445;-76
2023/01/03 03:25:12;;;;;;;7.50;2.67;;;;;;;;;;6240343;23;20369;-75
2023/01/03 03:30:41;;;;;;;;;;;;;;;;;;;;;
2023/01/03 03:33:18;;;;;;;4.70;1.73;;;;;;;;;;6240400;23;20442;-75
2023/01/03 03:35:56;;;;;;;2.67;1.47;;;;;;;;;;6240827;22;20433;-76
2023/01/03 03:38:31;;;;;;;3.63;1.87;;;;;;;;;;6240207;23;20370;-76
2023/01/03 03:46:46;;;;;;;5.60;2.67;;;;;;;;;;6241603;23;20763;-76
2023/01/03 03:52:24;;;;;;;3.63;1.30;;;;;;;;;;6242019;23;20697;-76
2023/01/03 03:54:58;;;;;;;3.20;1.70;;;;;;;;;;6265554;22;20397;-76
2023/01/03 03:57:43;;;;;;;9.70;2.03;;;;;;;;;;6237768;23;20448;-76
2023/01/03 04:00:32;;;;;;;6.63;3.73;;;;;;;;;;6237386;22;20935;-76
2023/01/03 04:03:03;;;;;;;6.07;2.00;;;;;;;;;;6239128;22;20393;-75
2023/01/03 04:05:37;;;;;;;8.93;2.10;;;;;;;;;;6238584;23;20797;-75
2023/01/03 04:08:20;;;;;;;6.73;2.40;;;;;;;;;;6237651;22;20438;-75
2023/01/03 04:11:04;;;;;;;7.10;2.60;;;;;;;;;;6238300;22;20400;-76
2023/01/03 04:13:34;;;;;;;5.23;2.30;;;;;;;;;;6239651;22;20358;-75
2023/01/03 04:16:02;;;;;;;4.97;2.20;;;;;;;;;;6237634;23;20420;-75
2023/01/03 04:18:33;;;;;;;6.20;2.30;;;;;;;;;;6235407;23;20374;-76
2023/01/03 04:20:58;;;;;;;7.90;2.80;;;;;;;;;;6228006;22;20900;-72
2023/01/03 04:23:24;;;;;;;6.30;2.50;;;;;;;;;;6210261;23;20430;-71
2023/01/03 04:25:49;;;;;;;5.43;2.43;;;;;;;;;;6212502;23;20155;-70
2023/01/03 04:28:15;;;;;;;5.80;2.73;;;;;;;;;;6237756;23;20531;-69
2023/01/03 04:30:40;;;;;;;11.00;3.43;;;;;;;;;;6236231;23;20483;-70
2023/01/03 04:33:05;;;;;;;6.70;2.60;;;;;;;;;;6236996;23;20194;-70
2023/01/03 04:35:31;;;;;;;7.90;2.70;;;;;;;;;;6235137;23;20570;-71
2023/01/03 04:37:56;;;;;;;7.40;2.60;;;;;;;;;;6239475;22;20152;-71
2023/01/03 04:40:22;;;;;;;5.20;2.60;;;;;;;;;;6241381;23;20196;-71
2023/01/03 04:45:31;;;;;;;8.87;2.80;;;;;;;;;;6235788;23;20158;-71
2023/01/03 04:47:57;;;;;;;7.27;3.00;;;;;;;;;;6238147;22;20727;-70
2023/01/03 04:50:22;;;;;;;4.97;2.93;;;;;;;;;;6239654;23;20147;-70
2023/01/03 04:52:47;;;;;;;8.60;2.97;;;;;;;;;;6240377;23;20189;-70
2023/01/03 04:55:13;;;;;;;8.07;3.40;;;;;;;;;;6240807;22;20230;-71
2023/01/03 04:57:38;;;;;;;7.50;3.10;;;;;;;;;;6239278;23;20155;-72
2023/01/03 05:00:04;;;;;;;5.63;3.13;;;;;;;;;;6237579;23;20163;-71
2023/01/03 05:02:29;;;;;;;5.33;3.40;;;;;;;;;;6238492;22;20171;-71
2023/01/03 05:04:54;;;;;;;8.03;3.73;;;;;;;;;;6240442;23;20600;-71
2023/01/03 05:07:20;;;;;;;7.17;3.70;;;;;;;;;;6238721;23;20468;-72
2023/01/03 05:09:45;;;;;;;5.27;3.60;;;;;;;;;;6236662;23;20140;-71
2023/01/03 05:12:11;;;;;;;6.40;3.83;;;;;;;;;;6235338;23;20174;-71
2023/01/03 05:14:40;;;;;;;7.73;4.27;;;;;;;;;;6240565;22;20143;-71
2023/01/03 05:17:05;;;;;;;8.53;4.00;;;;;;;;;;6238611;22;20151;-71
2023/01/03 05:19:30;;;;;;;9.23;4.00;;;;;;;;;;6239608;22;20396;-72
2023/01/03 05:27:24;;;;;;;5.57;3.70;;;;;;;;;;6240046;23;20753;-72
2023/01/03 05:29:51;;;;;;;10.43;5.00;;;;;;;;;;6239135;23;20370;-71
2023/01/03 05:32:16;;;;;;;7.60;5.10;;;;;;;;;;6237344;22;20167;-72
2023/01/03 05:34:42;;;;;;;11.60;5.27;;;;;;;;;;6241460;22;20435;-72
2023/01/03 05:37:08;;;;;;;11.37;5.27;;;;;;;;;;6242663;22;20229;-72
2023/01/03 05:39:33;;;;;;;8.30;5.90;;;;;;;;;;6242018;22;20293;-72
2023/01/03 05:41:58;;;;;;;9.30;5.20;;;;;;;;;;6241288;22;20418;-70
2023/01/03 05:44:24;;;;;;;8.93;5.40;;;;;;;;;;6240789;22;20232;-70
2023/01/03 05:46:50;;;;;;;8.67;5.90;;;;;;;;;;6238141;22;20147;-71
2023/01/03 05:49:15;;;;;;;7.07;5.10;;;;;;;;;;6240266;22;20218;-70
2023/01/03 05:51:41;;;;;;;8.10;5.53;;;;;;;;;;6241163;23;20621;-70
2023/01/03 05:54:06;;;;;;;8.97;5.67;;;;;;;;;;6238623;23;20151;-70
2023/01/03 05:56:31;;;;;;;7.50;6.03;;;;;;;;;;6240259;22;20139;-70
2023/01/03 05:58:57;;;;;;;9.93;6.40;;;;;;;;;;6237906;22;20226;-70
2023/01/03 06:01:25;;;;;;;12.13;6.73;;;;;;;;;;6238844;22;20163;-71
2023/01/03 06:03:51;;;;;;;10.80;5.83;;;;;;;;;;6241050;22;20281;-70
2023/01/03 06:06:16;;;;;;;9.00;6.87;;;;;;;;;;6239736;22;20443;-70
2023/01/03 06:08:42;;;;;;;9.80;7.53;;;;;;;;;;6238956;22;20358;-70
2023/01/03 06:11:12;;;;;;;9.40;6.47;;;;;;;;;;6237053;23;20159;-70
2023/01/03 06:13:37;;;;;;;14.43;6.70;;;;;;;;;;6239610;22;20151;-70
2023/01/03 06:18:51;;;;;;;12.37;7.43;;;;;;;;;;6238749;23;20143;-72
2023/01/03 06:21:16;;;;;;;8.50;6.13;;;;;;;;;;6240938;22;20405;-72
2023/01/03 06:23:41;;;;;;;11.43;6.83;;;;;;;;;;6240708;22;20163;-72
2023/01/03 06:26:07;;;;;;;10.97;7.20;;;;;;;;;;6238644;23;20595;-72
2023/01/03 06:28:32;;;;;;;10.60;7.00;;;;;;;;;;6237908;23;20144;-72
2023/01/03 06:30:57;;;;;;;9.90;6.90;;;;;;;;;;6235275;23;20167;-71
2023/01/03 06:33:22;;;;;;;9.73;6.60;;;;;;;;;;6241578;23;20277;-71
2023/01/03 06:35:48;;;;;;;11.13;7.33;;;;;;;;;;6236019;23;20526;-71
2023/01/03 06:38:13;;;;;;;10.60;7.30;;;;;;;;;;6237934;23;20213;-72
2023/01/03 06:40:38;;;;;;;11.10;8.00;;;;;;;;;;6239320;23;20150;-71
2023/01/03 06:43:04;;;;;;;14.93;8.70;;;;;;;;;;6237986;22;20171;-71
2023/01/03 06:53:55;;;;;;;12.37;9.67;;;;;;;;;;6239126;23;20353;-70
2023/01/03 06:56:21;;;;;;;11.07;7.93;;;;;;;;;;6240166;22;20370;-72
2023/01/03 06:58:47;;;;;;;12.80;7.93;;;;;;;;;;6239102;22;20147;-72
2023/01/03 07:01:13;;;;;;;10.97;8.23;;;;;;;;;;6239244;22;20456;-72
2023/01/03 07:03:38;;;;;;;12.87;7.87;;;;;;;;;;6241599;22;20163;-72
2023/01/03 07:06:04;;;;;;;10.20;7.47;;;;;;;;;;6239050;22;20151;-72
2023/01/03 07:08:29;;;;;;;11.33;8.30;;;;;;;;;;6239435;22;20150;-72
2023/01/03 07:10:54;;;;;;;11.60;8.37;;;;;;;;;;6238685;22;20170;-72
2023/01/03 07:16:04;;;;;;;11.80;8.90;;;;;;;;;;6237611;23;20142;-72
2023/01/03 07:18:30;;;;;;;14.03;8.30;;;;;;;;;;6238439;22;20453;-72
2023/01/03 07:20:55;;;;;;;11.87;8.63;;;;;;;;;;6237822;22;20278;-72
2023/01/03 07:23:20;;;;;;;13.27;7.90;;;;;;;;;;6239199;23;20405;-72
2023/01/03 07:25:46;;;;;;;13.60;8.07;;;;;;;;;;6239274;22;20154;-72
2023/01/03 07:28:13;;;;;;;13.87;7.60;;;;;;;;;;6237214;22;20150;-70
2023/01/03 07:30:39;;;;;;;10.07;7.50;;;;;;;;;;6238600;23;20495;-71
2023/01/03 07:33:04;;;;;;;16.03;8.70;;;;;;;;;;6238678;23;20380;-71
2023/01/03 07:35:33;;;;;;;12.90;8.40;;;;;;;;;;6241580;22;20390;-70
2023/01/03 07:37:58;;;;;;;11.40;7.93;;;;;;;;;;6241676;22;20154;-70
2023/01/03 07:40:24;;;;;;;18.33;9.33;;;;;;;;;;6241910;22;20695;-71
2023/01/03 07:45:33;;;;;;;12.03;7.90;;;;;;;;;;6239329;23;20246;-71
2023/01/03 07:47:58;;;;;;;17.30;9.90;;;;;;;;;;6236698;23;20405;-70
2023/01/03 07:50:24;;;;;;;12.90;9.17;;;;;;;;;;6235240;23;20151;-70
2023/01/03 07:52:49;;;;;;;14.93;10.63;;;;;;;;;;6239813;22;20519;-70
2023/01/03 07:55:15;;;;;;;14.30;9.20;;;;;;;;;;6239581;22;20147;-70
2023/01/03 07:57:43;;;;;;;15.70;11.17;;;;;;;;;;6236877;22;20177;-71
2023/01/03 08:00:08;;;;;;;19.30;11.20;;;;;;;;;;6239483;22;20148;-70
2023/01/03 08:02:34;;;;;;;14.70;10.37;;;;;;;;;;6238651;22;20433;-71
2023/01/03 08:05:00;;;;;;;20.17;11.00;;;;;;;;;;6237452;22;20143;-71
2023/01/03 08:07:25;;;;;;;14.70;11.70;;;;;;;;;;6236876;23;20171;-71
2023/01/03 08:15:18;;;;;;;15.20;12.30;;;;;;;;;;6237286;23;20349;-71
2023/01/03 08:17:43;;;;;;;18.33;12.57;;;;;;;;;;6235504;23;20721;-71
2023/01/03 08:20:09;;;;;;;15.67;12.43;;;;;;;;;;6235704;23;20147;-71
2023/01/03 08:22:34;;;;;;;15.20;12.13;;;;;;;;;;6234029;22;20186;-71
2023/01/03 08:25:00;;;;;;;16.23;11.90;;;;;;;;;;6236653;22;20583;-70
2023/01/03 08:27:25;;;;;;;20.80;12.50;;;;;;;;;;6238417;22;20144;-70
2023/01/03 08:29:51;;;;;;;15.87;11.60;;;;;;;;;;6233499;23;20186;-70
2023/01/03 08:32:16;;;;;;;19.60;11.40;;;;;;;;;;6258343;22;20636;-69
2023/01/03 08:34:43;;;;;;;17.50;11.47;;;;;;;;;;6239971;22;20521;-72
2023/01/03 08:37:10;;;;;;;17.73;12.33;;;;;;;;;;6235973;22;20147;-69
2023/01/03 08:39:41;;;;;;;14.53;11.40;;;;;;;;;;6238647;22;20374;-71
2023/01/03 08:42:07;;;;;;;17.63;11.70;;;;;;;;;;6237112;23;20426;-69
2023/01/03 08:44:32;;;;;;;15.57;12.37;;;;;;;;;;6263166;22;20491;-70
2023/01/03 08:46:59;;;;;;;16.90;12.13;;;;;;;;;;6235102;22;20517;-70
2023/01/03 08:49:28;;;;;;;16.43;13.23;;;;;;;;;;6237918;22;20246;-70
2023/01/03 08:51:53;;;;;;;15.97;12.00;;;;;;;;;;6261573;22;20397;-71
2023/01/03 08:54:19;;;;;;;15.23;12.80;;;;;;;;;;6236611;23;20779;-71
2023/01/03 08:56:44;;;;;;;19.07;13.37;;;;;;;;;;6237963;23;20158;-70
2023/01/03 08:59:09;;;;;;;19.77;13.50;;;;;;;;;;6238847;23;20153;-70
2023/01/03 09:01:35;;;;;;;15.97;13.03;;;;;;;;;;6237535;22;20528;-70
2023/01/03 09:04:00;;;;;;;15.60;11.83;;;;;;;;;;6238410;23;20633;-71
2023/01/03 09:06:25;;;;;;;17.93;13.13;;;;;;;;;;6238539;22;20140;-70
2023/01/03 09:08:51;;;;;;;21.60;12.47;;;;;;;;;;6236551;22;20600;-71
2023/01/03 09:11:16;;;;;;;20.00;12.90;;;;;;;;;;6235898;23;20662;-70
2023/01/03 09:13:41;;;;;;;17.43;12.57;;;;;;;;;;6238309;23;20154;-70
2023/01/03 09:16:08;;;;;;;18.67;12.20;;;;;;;;;;6235965;22;20472;-70
2023/01/03 09:18:34;;;;;;;18.13;13.10;;;;;;;;;;6237059;22;20143;-70
2023/01/03 09:21:01;;;;;;;19.23;12.33;;;;;;;;;;6236076;22;20405;-70
2023/01/03 09:23:27;;;;;;;16.30;12.37;;;;;;;;;;6237526;23;20237;-70
2023/01/03 09:25:52;;;;;;;16.13;13.03;;;;;;;;;;6237699;22;20420;-70
2023/01/03 09:28:18;;;;;;;17.10;12.43;;;;;;;;;;6225241;23;20200;-70
2023/01/03 09:30:43;;;;;;;17.80;13.40;;;;;;;;;;6234720;23;20174;-72
2023/01/03 09:33:09;;;;;;;17.43;14.20;;;;;;;;;;6236940;22;20155;-72
2023/01/03 09:35:35;;;;;;;14.83;13.13;;;;;;;;;;6238231;22;20151;-71
2023/01/03 09:38:00;;;;;;;20.73;13.50;;;;;;;;;;6237091;23;20770;-69
2023/01/03 09:40:25;;;;;;;17.67;13.50;;;;;;;;;;6237561;23;20225;-70
2023/01/03 09:45:35;;;;;;;16.53;13.00;;;;;;;;;;6239349;23;20142;-70
2023/01/03 09:48:01;;;;;;;17.37;13.77;;;;;;;;;;6239248;22;20777;-70
2023/01/03 09:50:28;;;;;;;16.87;12.93;;;;;;;;;;6238781;22;20175;-70
2023/01/03 10:04:04;;;;;;;17.77;13.77;;;;;;;;;;6239185;23;20780;-70
2023/01/03 10:06:29;;;;;;;18.67;13.43;;;;;;;;;;6238213;22;20369;-70
2023/01/03 10:09:00;;;;;;;19.13;13.80;;;;;;;;;;6238637;23;21122;-70
2023/01/03 10:11:32;;;;;;;18.40;13.27;;;;;;;;;;6238517;22;20229;-70
2023/01/03 10:14:03;;;;;;;16.20;13.33;;;;;;;;;;6240396;23;20377;-71
2023/01/03 10:16:46;;;;;;;15.80;13.27;;;;;;;;;;6236633;22;20640;-70
2023/01/03 10:19:38;;;;;;;17.50;13.80;;;;;;;;;;6238910;23;20378;-70
2023/01/03 10:22:12;;;;;;;18.70;11.63;;;;;;;;;;6204861;22;20437;-70
2023/01/03 10:24:45;;;;;;;14.20;11.70;;;;;;;;;;6239177;22;20397;-70
2023/01/03 10:27:15;;;;;;;12.50;11.20;;;;;;;;;;6239311;22;20833;-70
2023/01/03 10:29:41;;;;;;;14.50;11.87;;;;;;;;;;6238006;22;20955;-70
2023/01/03 10:32:16;;;;;;;15.90;13.20;;;;;;;;;;6237475;22;20439;-71
2023/01/03 10:34:41;;;;;;;17.13;11.20;;;;;;;;;;6237803;23;20413;-71
2023/01/03 10:37:16;;;;;;;11.03;9.93;;;;;;;;;;6237889;22;20413;-71
2023/01/03 10:39:42;;;;;;;14.10;9.67;;;;;;;;;;6239672;22;20649;-72
2023/01/03 10:42:07;;;;;;;11.73;9.10;;;;;;;;;;6238590;23;20429;-71
2023/01/03 10:44:33;;;;;;;10.53;9.43;;;;;;;;;;6239344;23;20200;-71
2023/01/03 10:47:07;;;;;;;14.80;9.43;;;;;;;;;;6241133;22;20492;-70
2023/01/03 10:49:32;;;;;;;11.53;10.00;;;;;;;;;;6240778;22;20582;-71
2023/01/03 10:52:17;;;;;;;41.00;10.13;;;;;;;;;;6239924;23;20390;-72
2023/01/03 10:54:42;;;;;;;30.37;10.60;;;;;;;;;;6242043;22;20140;-71
2023/01/03 10:57:27;;;;;;;11.50;10.23;;;;;;;;;;6237243;23;20374;-72
2023/01/03 10:59:53;;;;;;;21.33;11.30;;;;;;;;;;6237128;23;20226;-71
2023/01/03 11:02:18;;;;;;;19.90;12.97;;;;;;;;;;6236455;22;20499;-78
2023/01/03 11:05:17;;;;;;;;;;;;;;;;;;;;;
2023/01/03 11:07:43;;;;;;;15.23;12.93;;;;;;;;;;6274854;22;20210;-79
2023/01/03 11:10:14;;;;;;;21.00;12.70;;;;;;;;;;6276950;22;20361;-79
2023/01/03 11:12:42;;;;;;;20.90;14.37;;;;;;;;;;6250038;22;20468;-78
2023/01/03 11:15:18;;;;;;;15.93;13.50;;;;;;;;;;6246042;23;20359;-79
2023/01/03 11:17:57;;;;;;;21.80;13.90;;;;;;;;;;6241580;23;20397;-79
2023/01/03 11:20:31;;;;;;;16.27;13.73;;;;;;;;;;6245954;23;20421;-79
2023/01/03 11:23:01;;;;;;;18.10;14.43;;;;;;;;;;6247553;22;20420;-79
2023/01/03 11:25:47;;;;;;;17.13;14.17;;;;;;;;;;6245776;23;20836;-79
2023/01/03 11:28:15;;;;;;;20.37;16.80;;;;;;;;;;6249733;23;20373;-79
2023/01/03 11:30:59;;;;;;;18.67;16.00;;;;;;;;;;6247458;23;20833;-80
2023/01/03 11:33:43;;;;;;;25.23;15.03;;;;;;;;;;6245696;22;20386;-79
2023/01/03 11:36:19;;;;;;;19.97;15.77;;;;;;;;;;6244634;23;20373;-79
2023/01/03 11:39:03;;;;;;;21.77;16.73;;;;;;;;;;6252648;23;20400;-80
2023/01/03 11:41:31;;;;;;;21.87;17.50;;;;;;;;;;6258846;22;20382;-80
2023/01/03 11:44:15;;;;;;;29.97;18.10;;;;;;;;;;6259262;23;20461;-80
2023/01/03 11:46:44;;;;;;;21.93;16.37;;;;;;;;;;6258674;23;20362;-80
2023/01/03 11:49:12;;;;;;;24.50;18.80;;;;;;;;;;6229193;23;20374;-79
2023/01/03 11:51:56;;;;;;;25.40;19.73;;;;;;;;;;6255645;22;20378;-80
2023/01/03 11:54:27;;;;;;;27.70;19.83;;;;;;;;;;6229216;23;20374;-80
2023/01/03 11:56:53;;;;;;;28.47;21.70;;;;;;;;;;6257450;23;20373;-80
2023/01/03 11:59:33;;;;;;;26.87;19.47;;;;;;;;;;6229494;23;20370;-80
2023/01/03 12:02:17;;;;;;;31.80;22.70;;;;;;;;;;6256203;22;20179;-80
2023/01/03 12:04:45;;;;;;;26.60;21.67;;;;;;;;;;6254453;23;21160;-80
2023/01/03 12:07:15;;;;;;;30.13;23.03;;;;;;;;;;6254541;23;20382;-80
2023/01/03 12:09:47;;;;;;;31.60;23.00;;;;;;;;;;6255695;23;20374;-80
2023/01/03 12:12:19;;;;;;;28.90;21.50;;;;;;;;;;6254387;22;20469;-80
2023/01/03 12:14:49;;;;;;;28.73;22.57;;;;;;;;;;6255211;23;20420;-80
2023/01/03 12:17:23;;;;;;;28.53;23.23;;;;;;;;;;6257042;23;20377;-80
2023/01/03 12:19:53;;;;;;;29.10;22.37;;;;;;;;;;6256034;23;20394;-80
2023/01/03 12:22:24;;;;;;;30.60;23.43;;;;;;;;;;6228011;23;20418;-78
2023/01/03 12:24:56;;;;;;;30.10;23.97;;;;;;;;;;6254045;23;20351;-80
2023/01/03 12:27:31;;;;;;;30.97;22.60;;;;;;;;;;6254341;23;20370;-80
2023/01/03 12:29:59;;;;;;;28.30;22.60;;;;;;;;;;6253901;23;20373;-80
2023/01/03 12:32:33;;;;;;;32.37;23.27;;;;;;;;;;6253283;22;20392;-80
2023/01/03 12:35:17;;;;;;;29.47;21.63;;;;;;;;;;6252832;23;20361;-80
2023/01/03 12:37:44;;;;;;;29.63;23.40;;;;;;;;;;6250039;23;20366;-80
2023/01/03 12:40:16;;;;;;;28.50;21.93;;;;;;;;;;6252191;23;20370;-80
2023/01/03 12:43:00;;;;;;;31.00;23.43;;;;;;;;;;6225928;23;20776;-80
2023/01/03 12:45:37;;;;;;;30.80;23.07;;;;;;;;;;6250252;23;20377;-80
2023/01/03 12:48:16;;;;;;;32.73;24.13;;;;;;;;;;6251052;23;20362;-80
2023/01/03 12:50:44;;;;;;;29.60;22.57;;;;;;;;;;6253769;23;20370;-80
2023/01/03 12:53:17;;;;;;;31.53;22.63;;;;;;;;;;6225998;23;20404;-80
2023/01/03 12:55:45;;;;;;;27.50;21.43;;;;;;;;;;6254394;23;20434;-79
2023/01/03 12:58:26;;;;;;;31.03;20.63;;;;;;;;;;6246030;23;20385;-79
2023/01/03 13:00:59;;;;;;;29.90;24.10;;;;;;;;;;6256020;23;20366;-80
2023/01/03 13:03:38;;;;;;;31.00;23.80;;;;;;;;;;6253334;22;20464;-80
2023/01/03 13:06:11;;;;;;;30.63;23.93;;;;;;;;;;6253575;23;20400;-79
2023/01/03 13:08:39;;;;;;;29.50;22.30;;;;;;;;;;6249374;23;20342;-80
2023/01/03 13:11:18;;;;;;;32.73;24.07;;;;;;;;;;6253492;22;20453;-80
2023/01/03 13:14:07;;;;;;;31.90;23.10;;;;;;;;;;6250211;23;20381;-79
2023/01/03 13:16:35;;;;;;;34.37;24.07;;;;;;;;;;6238277;23;20378;-78
2023/01/03 13:19:18;;;;;;;30.53;22.50;;;;;;;;;;6245237;23;20438;-79
2023/01/03 13:21:53;;;;;;;36.90;23.60;;;;;;;;;;6220369;23;20398;-79
2023/01/03 13:24:37;;;;;;;34.83;24.20;;;;;;;;;;6251742;23;20389;-80
2023/01/03 13:27:18;;;;;;;34.10;24.57;;;;;;;;;;6253862;23;20365;-81
2023/01/03 13:29:49;;;;;;;34.20;23.70;;;;;;;;;;6228668;23;20798;-80
2023/01/03 13:32:21;;;;;;;32.07;23.00;;;;;;;;;;6225392;23;20478;-80
2023/01/03 13:34:55;;;;;;;30.87;23.20;;;;;;;;;;6250958;23;20390;-80
2023/01/03 13:37:25;;;;;;;30.73;22.90;;;;;;;;;;6260068;23;20445;-81
2023/01/03 13:39:50;;;;;;;35.93;25.20;;;;;;;;;;6251490;23;20358;-80
2023/01/03 13:42:19;;;;;;;29.10;22.50;;;;;;;;;;6249989;22;20969;-80
2023/01/03 13:44:45;;;;;;;30.43;21.20;;;;;;;;;;6254206;23;20146;-80
2023/01/03 13:47:24;;;;;;;30.57;22.70;;;;;;;;;;6255400;23;20823;-80
2023/01/03 13:49:49;;;;;;;39.53;25.67;;;;;;;;;;6226892;23;20147;-78
2023/01/03 13:52:33;;;;;;;34.90;23.00;;;;;;;;;;6254829;22;20393;-79
2023/01/03 13:54:58;;;;;;;33.70;22.93;;;;;;;;;;6248727;23;20586;-79
2023/01/03 13:57:28;;;;;;;31.27;22.77;;;;;;;;;;6248415;23;20465;-77
2023/01/03 13:59:56;;;;;;;29.50;22.90;;;;;;;;;;6247744;23;20143;-77
2023/01/03 14:02:41;;;;;;;32.17;22.90;;;;;;;;;;6246351;22;20516;-77
2023/01/03 14:05:06;;;;;;;28.57;22.63;;;;;;;;;;6246551;23;20396;-77
2023/01/03 14:07:40;;;;;;;32.73;23.07;;;;;;;;;;6245703;23;20837;-77
2023/01/03 14:10:08;;;;;;;28.10;19.80;;;;;;;;;;6247038;23;20139;-79
2023/01/03 14:12:34;;;;;;;27.13;20.20;;;;;;;;;;6246488;22;20390;-78
2023/01/03 14:15:04;;;;;;;29.53;20.20;;;;;;;;;;6248430;23;20682;-78
2023/01/03 14:17:31;;;;;;;35.37;20.20;;;;;;;;;;6245108;23;20131;-79
2023/01/03 14:19:58;;;;;;;24.20;18.67;;;;;;;;;;6220653;23;20741;-78
2023/01/03 14:22:27;;;;;;;24.50;18.23;;;;;;;;;;6244920;22;20425;-79
2023/01/03 14:24:55;;;;;;;20.07;17.67;;;;;;;;;;6245570;23;20451;-79
2023/01/03 14:27:22;;;;;;;26.13;18.70;;;;;;;;;;6244885;23;20358;-79
2023/01/03 14:29:49;;;;;;;20.33;16.30;;;;;;;;;;6245501;23;20416;-79
2023/01/03 14:32:17;;;;;;;24.87;17.17;;;;;;;;;;6221286;23;20793;-80
2023/01/03 14:34:43;;;;;;;21.83;16.50;;;;;;;;;;6248293;23;20374;-79
2023/01/03 14:37:12;;;;;;;24.20;16.57;;;;;;;;;;6246809;23;20370;-79
2023/01/03 14:39:37;;;;;;;25.70;15.57;;;;;;;;;;6247578;23;20465;-79
2023/01/03 14:42:04;;;;;;;20.53;15.47;;;;;;;;;;6221054;23;20408;-80
2023/01/03 14:44:30;;;;;;;20.93;15.90;;;;;;;;;;6222538;23;20156;-79
2023/01/03 14:46:57;;;;;;;22.90;15.90;;;;;;;;;;6251804;23;20365;-80
2023/01/03 14:49:25;;;;;;;17.77;14.73;;;;;;;;;;6246554;23;20146;-79
2023/01/03 14:51:57;;;;;;;19.23;14.27;;;;;;;;;;6250167;22;20389;-79
2023/01/03 14:54:23;;;;;;;18.60;14.40;;;;;;;;;;6246675;23;20429;-80
2023/01/03 14:56:48;;;;;;;18.93;13.87;;;;;;;;;;6247346;23;20419;-78
2023/01/03 14:59:15;;;;;;;17.47;13.03;;;;;;;;;;6246652;23;20366;-78
2023/01/03 15:01:41;;;;;;;18.07;12.87;;;;;;;;;;6246357;22;20189;-79
2023/01/03 15:04:08;;;;;;;19.40;14.10;;;;;;;;;;6241099;23;20410;-77
2023/01/03 15:06:34;;;;;;;21.63;13.70;;;;;;;;;;6242243;23;20863;-78
2023/01/03 15:09:00;;;;;;;15.93;13.40;;;;;;;;;;6241910;23;20366;-77
2023/01/03 15:11:31;;;;;;;20.70;12.73;;;;;;;;;;6241443;22;20390;-77
2023/01/03 15:14:01;;;;;;;19.73;14.70;;;;;;;;;;6242365;23;20366;-76
2023/01/03 15:16:26;;;;;;;19.60;13.77;;;;;;;;;;6241429;23;20394;-77
2023/01/03 15:18:57;;;;;;;17.93;13.17;;;;;;;;;;6213011;23;20840;-77
2023/01/03 15:21:22;;;;;;;18.67;13.00;;;;;;;;;;6241103;22;20136;-77
2023/01/03 15:23:48;;;;;;;16.43;13.60;;;;;;;;;;6239028;23;20490;-78
2023/01/03 15:26:23;;;;;;;21.27;14.20;;;;;;;;;;6241862;23;20221;-79
2023/01/03 15:28:51;;;;;;;18.73;13.10;;;;;;;;;;6239618;23;20602;-77
2023/01/03 15:31:22;;;;;;;16.23;12.70;;;;;;;;;;6241931;22;20366;-78
2023/01/03 15:34:20;;;;;;;18.60;12.97;;;;;;;;;;6241035;23;20393;-77
2023/01/03 15:37:08;;;;;;;18.67;12.30;;;;;;;;;;6190689;23;20413;-80
2023/01/03 15:39:36;;;;;;;19.10;13.60;;;;;;;;;;6227910;23;20386;-81
2023/01/03 15:44:46;;;;;;;15.63;11.73;;;;;;;;;;6243822;23;20558;-77
2023/01/03 15:47:14;;;;;;;19.75;13.95;;;;;;;;;;6242126;23;20452;-77
2023/01/03 15:49:44;;;;;;;18.37;12.50;;;;;;;;;;6243342;23;20143;-80
2023/01/03 15:52:13;;;;;;;18.40;16.10;;;;;;;;;;6243117;22;20389;-78
2023/01/03 15:54:39;;;;;;;36.47;29.90;;;;;;;;;;6244020;23;20837;-78
2023/01/03 15:57:05;;;;;;;20.67;13.80;;;;;;;;;;6238647;23;20967;-78
2023/01/03 15:59:32;;;;;;;24.23;21.63;;;;;;;;;;6238138;23;20437;-78
2023/01/03 16:01:57;;;;;;;15.10;12.27;;;;;;;;;;6244754;22;20402;-78
2023/01/03 16:04:22;;;;;;;22.87;12.20;;;;;;;;;;6237277;23;20436;-77
2023/01/03 16:06:48;;;;;;;24.93;13.03;;;;;;;;;;6214452;23;20206;-78